createdAt,value
2024-02-14T00:01:35.183Z,40
2024-02-14T00:03:35.179Z,37
2024-02-14T00:05:35.275Z,38
2024-02-14T00:07:35.101Z,41
2024-02-14T00:09:35.166Z,38
2024-02-14T00:11:35.182Z,39
2024-02-14T00:13:35.265Z,38
2024-02-14T00:15:35.181Z,41
2024-02-14T00:17:35.326Z,39
2024-02-14T00:19:35.279Z,36
2024-02-14T00:21:35.085Z,41
2024-02-14T00:23:35.149Z,40
2024-02-14T00:25:35.097Z,40
2024-02-14T00:27:35.154Z,41
2024-02-14T00:29:35.184Z,39
2024-02-14T00:31:35.179Z,42
2024-02-14T00:33:35.357Z,38
2024-02-14T00:35:35.189Z,40
2024-02-14T00:37:35.148Z,44
2024-02-14T00:39:35.144Z,39
2024-02-14T00:41:35.232Z,33
2024-02-14T00:43:35.142Z,43
2024-02-14T00:45:35.113Z,45
2024-02-14T00:47:35.442Z,36
2024-02-14T00:49:35.302Z,38
2024-02-14T00:51:35.080Z,40
2024-02-14T00:53:35.156Z,41
2024-02-14T00:55:35.159Z,41
2024-02-14T00:57:35.250Z,42
2024-02-14T00:59:35.215Z,40
2024-02-14T01:01:35.148Z,40
2024-02-14T01:03:35.103Z,39
2024-02-14T01:05:35.304Z,36
2024-02-14T01:07:35.156Z,44
2024-02-14T01:09:35.102Z,36
2024-02-14T01:11:35.104Z,37
2024-02-14T01:13:35.345Z,37
2024-02-14T01:15:35.280Z,41
2024-02-14T01:17:35.206Z,40
2024-02-14T01:19:35.102Z,37
2024-02-14T01:21:35.205Z,38
2024-02-14T01:23:35.233Z,38
2024-02-14T01:25:35.134Z,33
2024-02-14T01:27:35.104Z,34
2024-02-14T01:29:35.276Z,33
2024-02-14T01:31:35.121Z,32
2024-02-14T01:33:35.346Z,38
2024-02-14T01:35:35.169Z,36
2024-02-14T01:37:35.070Z,32
2024-02-14T01:39:35.092Z,34
2024-02-14T01:41:35.105Z,33
2024-02-14T01:43:35.116Z,29
2024-02-14T01:45:35.081Z,32
2024-02-14T01:47:35.250Z,31
2024-02-14T01:49:36.281Z,34
2024-02-14T01:51:36.235Z,32
2024-02-14T01:55:50.209Z,26
2024-02-14T01:57:50.170Z,30
2024-02-14T01:59:50.750Z,16
2024-02-14T02:01:50.193Z,32
2024-02-14T02:03:50.271Z,34
2024-02-14T02:05:50.314Z,35
2024-02-14T02:07:50.389Z,33
2024-02-14T02:09:50.168Z,32
2024-02-14T02:11:53.582Z,33
2024-02-14T02:13:50.199Z,34
2024-02-14T02:15:50.179Z,32
2024-02-14T02:17:50.215Z,32
2024-02-14T02:19:50.281Z,33
2024-02-14T02:21:50.111Z,28
2024-02-14T02:24:19.722Z,35
2024-02-14T02:25:40.062Z,38
2024-02-14T02:27:39.968Z,31
2024-02-14T02:29:40.041Z,32
2024-02-14T02:31:40.035Z,30
2024-02-14T02:33:40.103Z,35
2024-02-14T02:35:40.919Z,32
2024-02-14T02:37:40.035Z,31
2024-02-14T02:39:39.974Z,31
2024-02-14T02:41:40.098Z,33
2024-02-14T02:43:39.982Z,30
2024-02-14T02:45:39.915Z,26
2024-02-14T02:47:39.994Z,29
2024-02-14T02:49:39.995Z,31
2024-02-14T02:51:40.035Z,23
2024-02-14T02:53:40.047Z,27
2024-02-14T02:55:39.937Z,30
2024-02-14T02:57:41.376Z,23
2024-02-14T02:59:40.051Z,30
2024-02-14T03:01:40.921Z,27
2024-02-14T03:03:40.148Z,32
2024-02-14T03:05:40.054Z,27
2024-02-14T03:07:40.027Z,26
2024-02-14T03:09:39.916Z,28
2024-02-14T03:11:40.014Z,30
2024-02-14T03:13:39.915Z,30
2024-02-14T03:15:40.026Z,28
2024-02-14T03:17:40.115Z,24
2024-02-14T03:19:41.099Z,31
2024-02-14T03:22:12.890Z,28
2024-02-14T03:23:13.630Z,24
2024-02-14T03:25:14.252Z,30
2024-02-14T03:27:13.796Z,26
2024-02-14T03:29:13.622Z,33
2024-02-14T03:31:13.484Z,27
2024-02-14T03:33:13.627Z,26
2024-02-14T03:35:13.628Z,26
2024-02-14T03:37:13.521Z,30
2024-02-14T03:39:07.921Z,30
2024-02-14T03:41:07.757Z,32
2024-02-14T03:43:07.891Z,28
2024-02-14T03:45:08.304Z,29
2024-02-14T03:47:07.903Z,25
2024-02-14T03:49:07.880Z,29
2024-02-14T03:51:07.938Z,27
2024-02-14T03:53:07.880Z,30
2024-02-14T03:55:08.297Z,27
2024-02-14T03:57:07.966Z,23
2024-02-14T04:00:00.376Z,33
2024-02-14T04:01:44.542Z,50
2024-02-14T04:03:22.157Z,25
2024-02-14T04:05:22.150Z,26
2024-02-14T04:07:22.191Z,31
2024-02-14T04:09:22.149Z,20
2024-02-14T04:11:22.104Z,21
2024-02-14T04:13:22.175Z,26
2024-02-14T04:15:22.111Z,21
2024-02-14T04:17:22.126Z,30
2024-02-14T04:19:22.276Z,23
2024-02-14T04:21:22.179Z,23
2024-02-14T04:23:22.169Z,27
2024-02-14T04:25:22.147Z,22
2024-02-14T04:27:22.113Z,26
2024-02-14T04:29:22.032Z,23
2024-02-14T04:31:22.104Z,24
2024-02-14T04:33:22.254Z,26
2024-02-14T04:35:22.145Z,17
2024-02-14T04:37:22.053Z,23
2024-02-14T04:39:22.305Z,22
2024-02-14T04:41:22.108Z,23
2024-02-14T04:43:22.162Z,21
2024-02-14T04:45:22.098Z,22
2024-02-14T04:48:56.789Z,24
2024-02-14T04:50:41.208Z,24
2024-02-14T04:52:41.232Z,19
2024-02-14T04:54:41.141Z,18
2024-02-14T04:56:41.307Z,20
2024-02-14T04:58:41.295Z,25
2024-02-14T05:00:41.274Z,18
2024-02-14T05:02:41.323Z,20
2024-02-14T05:05:14.169Z,45
2024-02-14T05:06:27.020Z,8
2024-02-14T05:08:27.035Z,17
2024-02-14T05:10:26.791Z,23
2024-02-14T05:12:26.869Z,24
2024-02-14T05:14:26.967Z,22
2024-02-14T05:16:26.802Z,24
2024-02-14T05:18:27.021Z,18
2024-02-14T05:20:26.961Z,23
2024-02-14T05:22:26.830Z,22
2024-02-14T05:24:26.902Z,19
2024-02-14T05:26:26.797Z,25
2024-02-14T05:28:26.814Z,18
2024-02-14T05:30:27.264Z,21
2024-02-14T05:32:26.983Z,24
2024-02-14T05:34:26.947Z,23
2024-02-14T05:36:26.729Z,25
2024-02-14T05:38:26.896Z,22
2024-02-14T05:40:26.831Z,24
2024-02-14T05:42:26.905Z,17
2024-02-14T05:44:26.867Z,23
2024-02-14T05:46:26.884Z,21
2024-02-14T05:48:27.035Z,22
2024-02-14T05:50:26.923Z,24
2024-02-14T05:52:26.722Z,23
2024-02-14T05:54:26.893Z,18
2024-02-14T05:56:26.850Z,25
2024-02-14T05:58:26.827Z,24
2024-02-14T06:00:29.059Z,21
2024-02-14T06:02:26.939Z,18
2024-02-14T06:04:26.841Z,20
2024-02-14T06:06:26.914Z,25
2024-02-14T06:08:26.864Z,11
2024-02-14T06:10:26.842Z,24
2024-02-14T06:12:26.880Z,25
2024-02-14T06:14:26.991Z,27
2024-02-14T06:16:26.798Z,29
2024-02-14T06:18:26.825Z,25
2024-02-14T06:20:26.888Z,24
2024-02-14T06:22:26.840Z,30
2024-02-14T06:24:26.776Z,25
2024-02-14T06:26:26.934Z,23
2024-02-14T06:28:26.895Z,21
2024-02-14T06:30:29.868Z,21
2024-02-14T06:32:26.933Z,27
2024-02-14T06:34:26.951Z,24
2024-02-14T06:36:26.825Z,22
2024-02-14T06:38:27.200Z,27
2024-02-14T06:40:26.835Z,23
2024-02-14T06:42:26.762Z,23
2024-02-14T06:44:26.755Z,17
2024-02-14T06:46:26.836Z,15
2024-02-14T06:48:26.925Z,30
2024-02-14T06:50:27.149Z,18
2024-02-14T06:52:27.024Z,21
2024-02-14T06:54:26.831Z,30
2024-02-14T06:56:26.806Z,30
2024-02-14T06:58:26.816Z,25
2024-02-14T07:00:26.876Z,24
2024-02-14T07:02:26.741Z,28
2024-02-14T07:04:26.811Z,28
2024-02-14T07:06:26.804Z,28
2024-02-14T07:08:26.788Z,27
2024-02-14T07:10:26.782Z,29
2024-02-14T07:12:26.803Z,31
2024-02-14T07:14:26.776Z,31
2024-02-14T07:16:26.842Z,30
2024-02-14T07:18:26.905Z,26
2024-02-14T07:20:26.826Z,29
2024-02-14T07:22:26.688Z,23
2024-02-14T07:24:26.744Z,33
2024-02-14T07:26:26.815Z,30
2024-02-14T07:28:26.788Z,32
2024-02-14T07:30:26.750Z,33
2024-02-14T07:32:26.893Z,30
2024-02-14T07:34:27.036Z,30
2024-02-14T07:36:26.721Z,23
2024-02-14T07:38:26.739Z,26
2024-02-14T07:40:26.792Z,23
2024-02-14T07:42:26.778Z,29
2024-02-14T07:44:26.734Z,26
2024-02-14T07:46:26.733Z,26
2024-02-14T07:48:26.969Z,22
2024-02-14T07:50:26.701Z,14
2024-02-14T07:52:26.708Z,22
2024-02-14T07:54:26.723Z,28
2024-02-14T07:56:26.694Z,25
2024-02-14T07:58:26.690Z,28
2024-02-14T08:00:26.768Z,25
2024-02-14T08:02:26.751Z,24
2024-02-14T08:04:27.028Z,26
2024-02-14T08:06:27.140Z,23
2024-02-14T08:08:26.786Z,26
2024-02-14T08:10:27.015Z,30
2024-02-14T08:12:26.797Z,30
2024-02-14T08:14:26.962Z,28
2024-02-14T08:16:26.653Z,32
2024-02-14T08:18:26.873Z,32
2024-02-14T08:20:26.685Z,31
2024-02-14T08:22:26.769Z,25
2024-02-14T08:24:26.771Z,32
2024-02-14T08:26:26.812Z,32
2024-02-14T08:28:26.717Z,34
2024-02-14T08:30:26.718Z,35
2024-02-14T08:32:27.336Z,30
2024-02-14T08:34:26.842Z,30
2024-02-14T08:36:26.739Z,30
2024-02-14T08:38:26.790Z,25
2024-02-14T08:40:26.707Z,20
2024-02-14T08:42:26.624Z,17
2024-02-14T08:44:26.762Z,21
2024-02-14T08:46:26.813Z,21
2024-02-14T08:48:29.651Z,18
2024-02-14T08:50:26.835Z,17
2024-02-14T08:52:26.753Z,22
2024-02-14T08:54:26.712Z,28
2024-02-14T08:56:26.698Z,25
2024-02-14T08:58:26.773Z,24
2024-02-14T09:00:26.925Z,24
2024-02-14T09:02:26.758Z,21
2024-02-14T09:04:26.652Z,25
2024-02-14T09:06:26.760Z,16
2024-02-14T09:08:26.706Z,22
2024-02-14T09:10:26.780Z,22
2024-02-14T09:12:26.701Z,21
2024-02-14T09:14:27.008Z,25
2024-02-14T09:16:26.712Z,22
2024-02-14T09:18:26.819Z,21
2024-02-14T09:20:26.942Z,23
2024-02-14T09:22:26.663Z,24
2024-02-14T09:24:26.797Z,18
2024-02-14T09:26:26.694Z,24
2024-02-14T09:28:26.666Z,26
2024-02-14T09:30:34.678Z,22
2024-02-14T09:32:26.712Z,23
2024-02-14T09:34:26.819Z,24
2024-02-14T09:36:26.803Z,26
2024-02-14T09:38:26.670Z,26
2024-02-14T09:40:26.620Z,23
2024-02-14T09:42:29.157Z,22
2024-02-14T09:44:28.413Z,20
2024-02-14T09:46:26.811Z,21
2024-02-14T09:48:27.298Z,27
2024-02-14T09:50:27.638Z,22
2024-02-14T09:51:16.983Z,30
2024-02-14T09:52:41.254Z,29
2024-02-14T09:54:40.921Z,22
2024-02-14T09:56:40.447Z,24
2024-02-14T09:58:40.989Z,24
2024-02-14T10:00:40.603Z,23
2024-02-14T10:02:40.474Z,23
2024-02-14T10:04:40.485Z,18
2024-02-14T10:06:40.511Z,22
2024-02-14T10:08:48.498Z,20
2024-02-14T10:11:15.213Z,43
2024-02-14T10:12:27.138Z,21
2024-02-14T10:14:27.939Z,21
2024-02-14T10:16:27.163Z,19
2024-02-14T10:18:27.427Z,18
2024-02-14T10:20:27.132Z,19
2024-02-14T10:22:33.031Z,18
2024-02-14T10:24:27.301Z,15
2024-02-14T10:26:27.284Z,14
2024-02-14T10:28:30.450Z,11
2024-02-14T10:30:27.214Z,9
2024-02-14T10:32:28.300Z,10
2024-02-14T10:34:28.880Z,9
2024-02-14T10:36:27.357Z,9
2024-02-14T10:38:28.157Z,7
2024-02-14T10:40:27.601Z,7
2024-02-14T10:42:27.153Z,5
2024-02-14T10:44:27.214Z,4
2024-02-14T10:46:27.466Z,5
2024-02-14T10:48:29.480Z,3
2024-02-14T10:50:28.995Z,3
2024-02-14T10:52:28.805Z,3
2024-02-14T10:54:27.916Z,5
2024-02-14T10:56:29.530Z,5
2024-02-14T10:58:29.525Z,4
2024-02-14T11:00:27.553Z,5
2024-02-14T11:02:27.614Z,5
2024-02-14T11:04:27.310Z,2
2024-02-14T11:06:27.249Z,4
2024-02-14T11:08:29.944Z,3
2024-02-14T11:10:28.797Z,3
2024-02-14T11:12:27.112Z,2
2024-02-14T11:14:30.747Z,2
2024-02-14T11:16:32.860Z,3
2024-02-14T11:18:30.201Z,3
2024-02-14T11:20:32.830Z,2
2024-02-14T11:22:27.092Z,1
2024-02-14T11:24:28.959Z,3
2024-02-14T11:26:27.203Z,2
2024-02-14T11:28:29.295Z,3
2024-02-14T11:30:36.057Z,2
2024-02-14T11:32:28.628Z,2
2024-02-14T11:34:27.142Z,3
2024-02-14T11:36:27.283Z,3
2024-02-14T11:38:27.474Z,3
2024-02-14T11:40:27.098Z,4
2024-02-14T11:42:27.708Z,2
2024-02-14T11:44:27.092Z,3
2024-02-14T11:46:27.094Z,3
2024-02-14T11:48:27.445Z,3
2024-02-14T11:50:27.161Z,3
2024-02-14T11:52:27.521Z,4
2024-02-14T11:54:27.256Z,4
2024-02-14T11:56:27.510Z,3
2024-02-14T11:58:27.204Z,2
2024-02-14T12:00:27.199Z,3
2024-02-14T12:02:27.656Z,4
2024-02-14T12:04:27.108Z,5
2024-02-14T12:06:27.327Z,3
2024-02-14T12:08:27.370Z,2
2024-02-14T12:10:27.143Z,5
2024-02-14T12:12:27.099Z,4
2024-02-14T12:14:27.602Z,3
2024-02-14T12:16:27.121Z,2
2024-02-14T12:18:27.208Z,4
2024-02-14T12:20:27.147Z,4
2024-02-14T12:22:27.093Z,3
2024-02-14T12:24:28.462Z,3
2024-02-14T12:26:27.150Z,5
2024-02-14T12:28:27.094Z,4
2024-02-14T12:30:34.714Z,4
2024-02-14T12:32:27.109Z,1
2024-02-14T12:34:28.657Z,4
2024-02-14T12:36:27.441Z,3
2024-02-14T12:38:27.164Z,3
2024-02-14T12:40:28.864Z,5
2024-02-14T12:42:27.020Z,3
2024-02-14T12:44:59.232Z,5
2024-02-14T12:46:09.152Z,5
2024-02-14T12:50:09.551Z,3
2024-02-14T12:52:09.046Z,4
2024-02-14T12:54:09.005Z,4
2024-02-14T12:56:09.242Z,5
2024-02-14T12:58:09.131Z,5
2024-02-14T13:01:11.405Z,5
2024-02-14T13:02:16.459Z,5
2024-02-14T13:04:16.400Z,3
2024-02-14T13:06:16.494Z,4
2024-02-14T13:08:16.445Z,3
2024-02-14T13:10:16.473Z,4
2024-02-14T13:12:16.403Z,3
2024-02-14T13:14:16.391Z,3
2024-02-14T13:16:16.416Z,4
2024-02-14T13:18:16.558Z,2
2024-02-14T13:20:16.709Z,3
2024-02-14T13:22:16.327Z,5
2024-02-14T13:24:16.668Z,3
2024-02-14T13:26:16.442Z,3
2024-02-14T13:28:16.414Z,3
2024-02-14T13:30:16.577Z,2
2024-02-14T13:32:16.437Z,2
2024-02-14T13:34:16.624Z,3
2024-02-14T13:36:16.546Z,3
2024-02-14T13:38:16.479Z,2
2024-02-14T13:40:16.502Z,2
2024-02-14T13:42:16.505Z,1
2024-02-14T13:44:16.413Z,3
2024-02-14T13:46:16.410Z,3
2024-02-14T13:48:16.533Z,3
2024-02-14T13:50:16.366Z,3
2024-02-14T13:52:16.508Z,5
2024-02-14T13:54:16.487Z,1
2024-02-14T13:56:16.318Z,3
2024-02-14T13:58:16.338Z,2
2024-02-14T14:00:16.709Z,4
2024-02-14T14:02:16.343Z,3
2024-02-14T14:04:16.369Z,2
2024-02-14T14:06:16.505Z,3
2024-02-14T14:08:16.416Z,3
2024-02-14T14:10:16.361Z,4
2024-02-14T14:12:16.369Z,0
2024-02-14T14:14:16.413Z,4
2024-02-14T14:16:16.577Z,4
2024-02-14T14:18:16.411Z,4
2024-02-14T14:20:16.405Z,3
2024-02-14T14:22:16.413Z,2
2024-02-14T14:24:16.533Z,3
2024-02-14T14:26:16.406Z,2
2024-02-14T14:28:16.473Z,3
2024-02-14T14:30:16.909Z,3
2024-02-14T14:32:16.415Z,3
2024-02-14T14:34:16.592Z,1
2024-02-14T14:36:16.414Z,2
2024-02-14T14:38:16.469Z,3
2024-02-14T14:40:16.657Z,3
2024-02-14T14:42:16.410Z,1
2024-02-14T14:44:16.597Z,2
2024-02-14T14:46:17.428Z,1
2024-02-14T14:48:16.668Z,2
2024-02-14T14:50:16.528Z,2
2024-02-14T14:52:16.336Z,3
2024-02-14T14:54:17.678Z,1
2024-02-14T14:56:16.307Z,4
2024-02-14T14:58:17.372Z,3
2024-02-14T15:00:16.957Z,2
2024-02-14T15:02:16.371Z,2
2024-02-14T15:04:18.190Z,1
2024-02-14T15:06:16.659Z,2
2024-02-14T15:08:16.741Z,2
2024-02-14T15:10:16.390Z,3
2024-02-14T15:12:16.629Z,2
2024-02-14T15:14:16.273Z,3
2024-02-14T15:16:16.574Z,3
2024-02-14T15:18:16.686Z,3
2024-02-14T15:20:16.511Z,2
2024-02-14T15:22:16.372Z,2
2024-02-14T15:24:16.395Z,1
2024-02-14T15:26:16.350Z,1
2024-02-14T15:28:16.404Z,0
2024-02-14T15:30:17.011Z,2
2024-02-14T15:32:16.518Z,2
2024-02-14T15:34:16.325Z,3
2024-02-14T15:36:16.335Z,2
2024-02-14T15:38:16.334Z,3
2024-02-14T15:40:16.809Z,3
2024-02-14T15:42:16.398Z,3
2024-02-14T15:44:16.469Z,2
2024-02-14T15:46:16.225Z,4
2024-02-14T15:48:16.606Z,3
2024-02-14T15:50:16.315Z,3
2024-02-14T15:52:16.286Z,3
2024-02-14T15:54:16.390Z,4
2024-02-14T15:56:16.243Z,4
2024-02-14T15:58:16.246Z,3
2024-02-14T16:00:17.056Z,4
2024-02-14T16:02:45.324Z,6
2024-02-14T16:04:41.598Z,5
2024-02-14T16:06:41.658Z,4
2024-02-14T16:08:41.478Z,4
2024-02-14T16:11:18.945Z,6
2024-02-14T16:12:42.930Z,5
2024-02-14T16:14:43.076Z,5
2024-02-14T16:16:42.951Z,5
2024-02-14T16:18:43.082Z,4
2024-02-14T16:20:43.641Z,5
2024-02-14T16:22:43.011Z,4
2024-02-14T16:24:42.931Z,4
2024-02-14T16:26:43.030Z,4
2024-02-14T16:28:42.975Z,4
2024-02-14T16:30:43.013Z,6
2024-02-14T16:32:42.990Z,5
2024-02-14T16:34:43.084Z,4
2024-02-14T16:36:42.873Z,4
2024-02-14T16:38:43.027Z,2
2024-02-14T16:40:42.957Z,7
2024-02-14T16:42:42.969Z,4
2024-02-14T16:44:43.059Z,5
2024-02-14T16:46:42.962Z,9
2024-02-14T16:48:43.065Z,12
2024-02-14T16:50:43.112Z,11
2024-02-14T16:52:42.947Z,8
2024-02-14T16:54:42.926Z,13
2024-02-14T16:56:42.953Z,7
2024-02-14T16:58:42.883Z,9
2024-02-14T17:00:43.023Z,7
2024-02-14T17:03:17.091Z,8
2024-02-14T17:05:15.003Z,10
2024-02-14T17:07:14.948Z,9
2024-02-14T17:09:14.845Z,9
2024-02-14T17:11:17.540Z,7
2024-02-14T17:13:14.724Z,10
2024-02-14T17:15:14.837Z,8
2024-02-14T17:17:14.770Z,6
2024-02-14T17:19:14.928Z,9
2024-02-14T17:21:14.665Z,11
2024-02-14T17:23:14.669Z,8
2024-02-14T17:25:14.573Z,7
2024-02-14T17:27:14.740Z,6
2024-02-14T17:29:14.788Z,7
2024-02-14T17:31:14.706Z,7
2024-02-14T17:33:14.784Z,8
2024-02-14T17:35:14.810Z,5
2024-02-14T17:37:14.731Z,5
2024-02-14T17:39:14.669Z,5
2024-02-14T17:41:51.695Z,8
2024-02-14T17:43:38.966Z,6
2024-02-14T17:45:38.816Z,4
2024-02-14T17:47:39.092Z,5
2024-02-14T17:49:38.916Z,5
2024-02-14T17:51:38.936Z,4
2024-02-14T17:53:39.056Z,4
2024-02-14T17:55:39.124Z,3
2024-02-14T17:57:38.820Z,4
2024-02-14T17:59:39.289Z,4
2024-02-14T18:01:38.811Z,4
2024-02-14T18:03:38.931Z,4
2024-02-14T18:05:38.919Z,3
2024-02-14T18:07:38.946Z,4
2024-02-14T18:09:38.848Z,3
2024-02-14T18:11:38.867Z,4
2024-02-14T18:13:38.951Z,3
2024-02-14T18:15:38.907Z,4
2024-02-14T18:17:38.925Z,6
2024-02-14T18:19:38.818Z,5
2024-02-14T18:21:38.937Z,7
2024-02-14T18:23:39.013Z,11
2024-02-14T18:25:38.849Z,11
2024-02-14T18:27:38.923Z,11
2024-02-14T18:29:38.989Z,13
2024-02-14T18:31:38.894Z,7
2024-02-14T18:33:39.053Z,9
2024-02-14T18:35:38.898Z,10
2024-02-14T18:38:30.826Z,9
2024-02-14T18:40:27.387Z,7
2024-02-14T18:42:27.325Z,6
2024-02-14T18:44:27.311Z,7
2024-02-14T18:46:27.402Z,7
2024-02-14T18:48:27.602Z,7
2024-02-14T18:50:27.402Z,7
2024-02-14T18:52:27.399Z,9
2024-02-14T18:54:27.495Z,14
2024-02-14T18:56:27.301Z,21
2024-02-14T18:58:27.425Z,19
2024-02-14T19:00:27.546Z,15
2024-02-14T19:02:27.329Z,15
2024-02-14T19:04:27.459Z,10
2024-02-14T19:06:27.428Z,9
2024-02-14T19:08:27.411Z,9
2024-02-14T19:10:27.273Z,6
2024-02-14T19:11:13.928Z,8
2024-02-14T19:13:11.255Z,13
2024-02-14T19:15:11.956Z,18
2024-02-14T19:17:11.254Z,10
2024-02-14T19:19:11.316Z,13
2024-02-14T19:21:12.090Z,10
2024-02-14T19:23:11.110Z,12
2024-02-14T19:25:11.784Z,23
2024-02-14T19:27:11.256Z,27
2024-02-14T19:29:11.237Z,28
2024-02-14T19:31:11.182Z,22
2024-02-14T19:33:11.207Z,36
2024-02-14T19:35:11.357Z,33
2024-02-14T19:37:11.116Z,36
2024-02-14T19:39:11.241Z,29
2024-02-14T19:43:32.368Z,40
2024-02-14T19:45:25.657Z,44
2024-02-14T19:47:25.554Z,48
2024-02-14T19:49:25.647Z,50
2024-02-14T19:51:25.546Z,51
2024-02-14T19:53:25.566Z,50
2024-02-14T19:55:25.562Z,50
2024-02-14T19:57:25.661Z,49
2024-02-14T19:59:25.693Z,52
2024-02-14T20:01:25.581Z,48
2024-02-14T20:03:25.578Z,48
2024-02-14T20:05:25.632Z,44
2024-02-14T20:07:58.078Z,74
2024-02-14T20:09:35.227Z,45
2024-02-14T20:11:35.198Z,53
2024-02-14T20:13:35.146Z,48
2024-02-14T20:15:35.093Z,49
2024-02-14T20:17:35.424Z,66
2024-02-14T20:19:35.363Z,53
2024-02-14T20:21:35.396Z,66
2024-02-14T20:23:35.266Z,67
2024-02-14T20:25:35.178Z,63
2024-02-14T20:27:35.259Z,60
2024-02-14T20:29:35.197Z,60
2024-02-14T20:31:35.183Z,58
2024-02-14T20:33:35.369Z,55
2024-02-14T20:35:35.218Z,67
2024-02-14T20:37:35.134Z,60
2024-02-14T20:39:35.271Z,59
2024-02-14T20:41:35.133Z,53
2024-02-14T20:43:35.220Z,50
2024-02-14T20:45:35.247Z,51
2024-02-14T20:47:35.233Z,52
2024-02-14T20:49:35.297Z,53
2024-02-14T20:51:38.026Z,54
2024-02-14T20:53:35.242Z,57
2024-02-14T20:55:36.026Z,52
2024-02-14T20:57:35.189Z,56
2024-02-14T20:59:35.300Z,66
2024-02-14T21:01:35.175Z,50
2024-02-14T21:03:35.376Z,47
2024-02-14T21:05:35.151Z,46
2024-02-14T21:07:35.177Z,53
2024-02-14T21:09:35.148Z,55
2024-02-14T21:11:35.208Z,63
2024-02-14T21:13:35.087Z,61
2024-02-14T21:15:35.198Z,52
2024-02-14T21:17:35.205Z,55
2024-02-14T21:19:35.158Z,53
2024-02-14T21:22:10.691Z,63
2024-02-14T21:23:33.390Z,59
2024-02-14T21:25:33.388Z,48
2024-02-14T21:27:33.347Z,61
2024-02-14T21:29:33.409Z,54
2024-02-14T21:31:33.347Z,56
2024-02-14T21:33:33.476Z,53
2024-02-14T21:35:33.521Z,55
2024-02-14T21:37:33.366Z,55
2024-02-14T21:39:33.292Z,52
2024-02-14T21:41:33.551Z,57
2024-02-14T21:43:33.386Z,61
2024-02-14T21:45:33.409Z,57
2024-02-14T21:47:33.455Z,54
2024-02-14T21:49:33.434Z,50
2024-02-14T21:51:33.282Z,52
2024-02-14T21:53:33.317Z,50
2024-02-14T21:55:33.352Z,53
2024-02-14T21:57:33.309Z,59
2024-02-14T21:59:33.395Z,56
2024-02-14T22:01:33.375Z,63
2024-02-14T22:03:33.365Z,53
2024-02-14T22:05:33.467Z,57
2024-02-14T22:07:33.355Z,57
2024-02-14T22:09:33.252Z,55
2024-02-14T22:11:33.245Z,55
2024-02-14T22:13:33.335Z,63
2024-02-14T22:15:33.336Z,52
2024-02-14T22:17:33.449Z,53
2024-02-14T22:19:33.398Z,53
2024-02-14T22:21:33.257Z,50
2024-02-14T22:23:33.404Z,51
2024-02-14T22:25:33.248Z,53
2024-02-14T22:27:33.364Z,48
2024-02-14T22:29:33.391Z,49
2024-02-14T22:31:33.341Z,50
2024-02-14T22:33:33.725Z,51
2024-02-14T22:35:33.411Z,51
2024-02-14T22:37:33.372Z,57
2024-02-14T22:39:33.299Z,52
2024-02-14T22:42:04.152Z,59
2024-02-14T22:43:21.076Z,51
2024-02-14T22:45:21.070Z,51
2024-02-14T22:47:21.077Z,51
2024-02-14T22:49:21.052Z,52
2024-02-14T22:51:39.756Z,82
2024-02-14T22:53:22.326Z,50
2024-02-14T22:55:22.342Z,44
2024-02-14T22:57:22.343Z,48
2024-02-14T22:59:22.308Z,50
2024-02-14T23:01:22.307Z,50
2024-02-14T23:03:22.386Z,52
2024-02-14T23:05:22.407Z,48
2024-02-14T23:07:22.315Z,46
2024-02-14T23:09:22.227Z,46
2024-02-14T23:11:22.245Z,48
2024-02-14T23:13:22.411Z,44
2024-02-14T23:17:48.080Z,41
2024-02-14T23:19:47.998Z,44
2024-02-14T23:21:48.034Z,44
2024-02-14T23:23:47.968Z,45
2024-02-14T23:25:48.175Z,43
2024-02-14T23:27:48.039Z,41
2024-02-14T23:29:48.071Z,41
2024-02-14T23:31:48.004Z,42
2024-02-14T23:33:48.213Z,40
2024-02-14T23:35:47.972Z,42
2024-02-14T23:37:48.136Z,43
2024-02-14T23:39:47.927Z,42
2024-02-14T23:41:47.920Z,43
2024-02-14T23:43:47.974Z,45
2024-02-14T23:45:47.943Z,46
2024-02-14T23:47:48.089Z,42
2024-02-14T23:50:23.911Z,46
2024-02-14T23:51:41.404Z,42
2024-02-14T23:53:40.230Z,42
2024-02-14T23:55:40.067Z,39
2024-02-14T23:57:40.699Z,39
2024-02-14T23:59:40.168Z,32
